ENRM

Rørvik , Ryum Airport

Rørvik, Norway
METAR ENRM 231620Z 26011KT 9999 VCSH FEW012 SCT018CB SCT027 04/03 Q0995
Observed Flight Rules
Oct-23 @ 16:20 UTC (21 minutes ago) Visual Flight Rules
Wind Visibility Clouds
260° at 11 knots 10,000+ meters
  • Few at 1,200' AGL
  • Scattered at 1,800' AGL
  • Scattered at 2,700' AGL
Temperatures Readings
Current 4°C / 39°F
Dewpoint 3°C / 37°F
Humidity 93%
Altimeter 29.38" Hg
Pressure 995 hPa
Elevation 14
METAR ENRM 231620Z 26011KT 9999 VCSH FEW012 SCT018CB SCT027 04/03 Q0995
Observed Flight Rules
Oct-23 @ 16:20 UTC
(21 minutes ago)
VFR
Wind Visibility
260° at 11 knots 10,000+ meters
Clouds
  • Few at 1,200' AGL
  • Scattered at 1,800' AGL
  • Scattered at 2,700' AGL
Temperature Dewpoint
4°C / 39°F 3°C / 37°F
Humidity Altimeter Pressure
93% 29.38" Hg 995 hPa